sensor_id;sensor_type;location;lat;lon;timestamp;temperature;humidity
18189;DHT22;9219;50.396;8.546;2023-05-13T00:01:41;15.10;99.90
18189;DHT22;9219;50.396;8.546;2023-05-13T00:04:09;15.00;99.90
18189;DHT22;9219;50.396;8.546;2023-05-13T00:06:37;14.80;99.90
18189;DHT22;9219;50.396;8.546;2023-05-13T00:09:05;14.80;99.90
18189;DHT22;9219;50.396;8.546;2023-05-13T00:11:33;14.80;99.90
18189;DHT22;9219;50.396;8.546;2023-05-13T00:14:00;14.70;99.90
18189;DHT22;9219;50.396;8.546;2023-05-13T00:16:28;14.60;99.90
18189;DHT22;9219;50.396;8.546;2023-05-13T00:18:57;14.70;99.90
18189;DHT22;9219;50.396;8.546;2023-05-13T00:26:25;14.70;99.90
18189;DHT22;9219;50.396;8.546;2023-05-13T00:28:53;14.70;99.90
18189;DHT22;9219;50.396;8.546;2023-05-13T00:31:20;14.70;99.90
18189;DHT22;9219;50.396;8.546;2023-05-13T00:33:47;14.90;99.90
18189;DHT22;9219;50.396;8.546;2023-05-13T00:36:15;14.90;99.90
18189;DHT22;9219;50.396;8.546;2023-05-13T00:38:42;15.10;99.90
18189;DHT22;9219;50.396;8.546;2023-05-13T00:41:10;15.10;99.90
18189;DHT22;9219;50.396;8.546;2023-05-13T00:46:19;15.30;99.90
18189;DHT22;9219;50.396;8.546;2023-05-13T00:48:47;15.60;99.90
18189;DHT22;9219;50.396;8.546;2023-05-13T00:51:14;15.20;99.90
18189;DHT22;9219;50.396;8.546;2023-05-13T00:53:42;14.90;99.90
18189;DHT22;9219;50.396;8.546;2023-05-13T00:56:09;14.70;99.90
18189;DHT22;9219;50.396;8.546;2023-05-13T00:58:37;14.70;99.90
18189;DHT22;9219;50.396;8.546;2023-05-13T01:01:11;14.80;99.90
18189;DHT22;9219;50.396;8.546;2023-05-13T01:11:51;14.50;99.90
18189;DHT22;9219;50.396;8.546;2023-05-13T01:14:24;14.30;99.90
18189;DHT22;9219;50.396;8.546;2023-05-13T01:16:56;14.20;99.90
18189;DHT22;9219;50.396;8.546;2023-05-13T01:19:33;14.20;99.90
18189;DHT22;9219;50.396;8.546;2023-05-13T01:22:04;14.40;99.90
18189;DHT22;9219;50.396;8.546;2023-05-13T01:24:32;14.60;99.90
18189;DHT22;9219;50.396;8.546;2023-05-13T01:26:59;14.70;99.90
18189;DHT22;9219;50.396;8.546;2023-05-13T01:32:52;15.00;99.90
18189;DHT22;9219;50.396;8.546;2023-05-13T01:35:20;15.00;99.90
18189;DHT22;9219;50.396;8.546;2023-05-13T01:37:49;14.80;99.90
18189;DHT22;9219;50.396;8.546;2023-05-13T01:40:17;14.70;99.90
18189;DHT22;9219;50.396;8.546;2023-05-13T01:42:58;15.00;99.90
18189;DHT22;9219;50.396;8.546;2023-05-13T01:45:27;15.10;99.90
18189;DHT22;9219;50.396;8.546;2023-05-13T01:47:55;15.20;99.90
18189;DHT22;9219;50.396;8.546;2023-05-13T01:50:23;15.10;99.90
18189;DHT22;9219;50.396;8.546;2023-05-13T01:58:14;14.80;99.90
18189;DHT22;9219;50.396;8.546;2023-05-13T02:00:41;14.70;99.90
18189;DHT22;9219;50.396;8.546;2023-05-13T02:03:09;14.70;99.90
18189;DHT22;9219;50.396;8.546;2023-05-13T02:05:36;14.60;99.90
18189;DHT22;9219;50.396;8.546;2023-05-13T02:08:03;14.80;99.90
18189;DHT22;9219;50.396;8.546;2023-05-13T02:10:31;14.80;99.90
18189;DHT22;9219;50.396;8.546;2023-05-13T02:12:58;14.70;99.90
18189;DHT22;9219;50.396;8.546;2023-05-13T02:18:08;14.70;99.90
18189;DHT22;9219;50.396;8.546;2023-05-13T02:20:36;14.60;99.90
18189;DHT22;9219;50.396;8.546;2023-05-13T02:23:03;14.60;99.90
18189;DHT22;9219;50.396;8.546;2023-05-13T02:25:30;14.70;99.90
18189;DHT22;9219;50.396;8.546;2023-05-13T02:27:57;14.70;99.90
18189;DHT22;9219;50.396;8.546;2023-05-13T02:30:24;14.60;99.90
18189;DHT22;9219;50.396;8.546;2023-05-13T02:32:52;14.90;99.90
18189;DHT22;9219;50.396;8.546;2023-05-13T02:38:02;14.90;99.90
18189;DHT22;9219;50.396;8.546;2023-05-13T02:40:29;14.70;99.90
18189;DHT22;9219;50.396;8.546;2023-05-13T02:42:57;14.70;99.90
18189;DHT22;9219;50.396;8.546;2023-05-13T02:45:24;14.70;99.90
18189;DHT22;9219;50.396;8.546;2023-05-13T02:47:51;14.70;99.90
18189;DHT22;9219;50.396;8.546;2023-05-13T02:50:18;14.70;99.90
18189;DHT22;9219;50.396;8.546;2023-05-13T02:52:46;14.70;99.90
18189;DHT22;9219;50.396;8.546;2023-05-13T02:58:30;14.60;99.90
18189;DHT22;9219;50.396;8.546;2023-05-13T03:00:57;14.60;99.90
18189;DHT22;9219;50.396;8.546;2023-05-13T03:03:25;14.50;99.90
18189;DHT22;9219;50.396;8.546;2023-05-13T03:05:52;14.50;99.90
18189;DHT22;9219;50.396;8.546;2023-05-13T03:08:19;14.50;99.90
18189;DHT22;9219;50.396;8.546;2023-05-13T03:10:46;14.40;99.90
18189;DHT22;9219;50.396;8.546;2023-05-13T03:13:14;14.40;99.90
18189;DHT22;9219;50.396;8.546;2023-05-13T03:15:42;14.40;99.90
18189;DHT22;9219;50.396;8.546;2023-05-13T03:23:15;14.60;99.90
18189;DHT22;9219;50.396;8.546;2023-05-13T03:25:43;14.70;99.90
18189;DHT22;9219;50.396;8.546;2023-05-13T03:28:10;14.70;99.90
18189;DHT22;9219;50.396;8.546;2023-05-13T03:30:38;14.80;99.90
18189;DHT22;9219;50.396;8.546;2023-05-13T03:33:05;15.10;99.90
18189;DHT22;9219;50.396;8.546;2023-05-13T03:35:32;15.20;99.90
18189;DHT22;9219;50.396;8.546;2023-05-13T03:37:59;14.60;99.90
18189;DHT22;9219;50.396;8.546;2023-05-13T03:40:28;14.20;99.90
18189;DHT22;9219;50.396;8.546;2023-05-13T03:48:01;14.20;99.90
18189;DHT22;9219;50.396;8.546;2023-05-13T03:50:29;14.30;99.90
18189;DHT22;9219;50.396;8.546;2023-05-13T03:52:56;14.20;99.90
18189;DHT22;9219;50.396;8.546;2023-05-13T03:55:23;14.10;99.90
18189;DHT22;9219;50.396;8.546;2023-05-13T03:57:50;14.10;99.90
18189;DHT22;9219;50.396;8.546;2023-05-13T04:00:17;14.40;99.90
18189;DHT22;9219;50.396;8.546;2023-05-13T04:02:45;14.80;99.90
18189;DHT22;9219;50.396;8.546;2023-05-13T04:07:52;14.70;99.90
18189;DHT22;9219;50.396;8.546;2023-05-13T04:10:19;14.80;99.90
18189;DHT22;9219;50.396;8.546;2023-05-13T04:12:47;14.60;99.90
18189;DHT22;9219;50.396;8.546;2023-05-13T04:15:14;14.10;99.90
18189;DHT22;9219;50.396;8.546;2023-05-13T04:17:42;13.60;99.90
18189;DHT22;9219;50.396;8.546;2023-05-13T04:20:10;13.00;99.90
18189;DHT22;9219;50.396;8.546;2023-05-13T04:22:37;12.30;99.90
18189;DHT22;9219;50.396;8.546;2023-05-13T04:25:07;11.80;99.90
18189;DHT22;9219;50.396;8.546;2023-05-13T04:32:44;11.40;99.90
18189;DHT22;9219;50.396;8.546;2023-05-13T04:35:11;11.20;99.90
18189;DHT22;9219;50.396;8.546;2023-05-13T04:37:38;11.20;99.90
18189;DHT22;9219;50.396;8.546;2023-05-13T04:40:06;11.20;99.90
18189;DHT22;9219;50.396;8.546;2023-05-13T04:42:33;11.30;99.90
18189;DHT22;9219;50.396;8.546;2023-05-13T04:45:01;11.70;99.90
18189;DHT22;9219;50.396;8.546;2023-05-13T04:47:28;11.80;99.90
18189;DHT22;9219;50.396;8.546;2023-05-13T04:49:56;11.70;99.90
18189;DHT22;9219;50.396;8.546;2023-05-13T04:57:58;11.50;99.90
18189;DHT22;9219;50.396;8.546;2023-05-13T05:00:27;11.20;99.90
18189;DHT22;9219;50.396;8.546;2023-05-13T05:02:55;11.30;99.90
18189;DHT22;9219;50.396;8.546;2023-05-13T05:05:22;11.40;99.90
18189;DHT22;9219;50.396;8.546;2023-05-13T05:07:49;11.50;99.90
18189;DHT22;9219;50.396;8.546;2023-05-13T05:10:17;11.50;99.90
18189;DHT22;9219;50.396;8.546;2023-05-13T05:12:45;11.50;99.90
18189;DHT22;9219;50.396;8.546;2023-05-13T05:15:13;11.60;99.90
18189;DHT22;9219;50.396;8.546;2023-05-13T05:23:10;11.50;99.90
18189;DHT22;9219;50.396;8.546;2023-05-13T05:25:38;11.50;99.90
18189;DHT22;9219;50.396;8.546;2023-05-13T05:28:07;11.50;99.90
18189;DHT22;9219;50.396;8.546;2023-05-13T05:30:35;11.40;99.90
18189;DHT22;9219;50.396;8.546;2023-05-13T05:33:05;11.40;99.90
18189;DHT22;9219;50.396;8.546;2023-05-13T05:35:33;11.40;99.90
18189;DHT22;9219;50.396;8.546;2023-05-13T05:38:02;11.40;99.90
18189;DHT22;9219;50.396;8.546;2023-05-13T05:43:11;11.50;99.90
18189;DHT22;9219;50.396;8.546;2023-05-13T05:45:39;11.40;99.90
18189;DHT22;9219;50.396;8.546;2023-05-13T05:48:06;11.50;99.90
18189;DHT22;9219;50.396;8.546;2023-05-13T05:50:34;11.60;99.90
18189;DHT22;9219;50.396;8.546;2023-05-13T05:53:03;11.70;99.90
18189;DHT22;9219;50.396;8.546;2023-05-13T05:55:32;11.80;99.90
18189;DHT22;9219;50.396;8.546;2023-05-13T05:58:02;12.20;99.90
18189;DHT22;9219;50.396;8.546;2023-05-13T06:00:32;12.60;99.90
18189;DHT22;9219;50.396;8.546;2023-05-13T06:08:05;13.20;99.90
18189;DHT22;9219;50.396;8.546;2023-05-13T06:10:32;13.40;99.90
18189;DHT22;9219;50.396;8.546;2023-05-13T06:13:00;13.30;99.90
18189;DHT22;9219;50.396;8.546;2023-05-13T06:15:29;13.30;99.90
18189;DHT22;9219;50.396;8.546;2023-05-13T06:17:57;13.00;99.90
18189;DHT22;9219;50.396;8.546;2023-05-13T06:20:25;13.10;99.90
18189;DHT22;9219;50.396;8.546;2023-05-13T06:22:53;12.90;99.90
18189;DHT22;9219;50.396;8.546;2023-05-13T06:25:36;12.80;99.90
18189;DHT22;9219;50.396;8.546;2023-05-13T06:28:32;12.90;99.90
18189;DHT22;9219;50.396;8.546;2023-05-13T06:31:01;13.40;99.90
18189;DHT22;9219;50.396;8.546;2023-05-13T06:33:28;13.20;99.90
18189;DHT22;9219;50.396;8.546;2023-05-13T06:35:57;13.30;99.90
18189;DHT22;9219;50.396;8.546;2023-05-13T06:38:24;13.10;99.90
18189;DHT22;9219;50.396;8.546;2023-05-13T06:40:52;13.10;99.90
18189;DHT22;9219;50.396;8.546;2023-05-13T06:43:20;13.10;99.90
18189;DHT22;9219;50.396;8.546;2023-05-13T06:45:48;13.40;99.90
18189;DHT22;9219;50.396;8.546;2023-05-13T06:53:22;14.20;99.90
18189;DHT22;9219;50.396;8.546;2023-05-13T06:55:49;14.80;99.90
18189;DHT22;9219;50.396;8.546;2023-05-13T06:58:16;15.10;99.90
18189;DHT22;9219;50.396;8.546;2023-05-13T07:00:45;15.30;99.90
18189;DHT22;9219;50.396;8.546;2023-05-13T07:03:13;15.50;99.90
18189;DHT22;9219;50.396;8.546;2023-05-13T07:05:41;15.60;99.90
18189;DHT22;9219;50.396;8.546;2023-05-13T07:08:09;15.50;99.90
18189;DHT22;9219;50.396;8.546;2023-05-13T07:10:43;15.70;99.90
18189;DHT22;9219;50.396;8.546;2023-05-13T07:18:16;15.60;99.90
18189;DHT22;9219;50.396;8.546;2023-05-13T07:20:44;16.20;99.90
18189;DHT22;9219;50.396;8.546;2023-05-13T07:23:12;16.30;99.90
18189;DHT22;9219;50.396;8.546;2023-05-13T07:25:39;16.30;99.90
18189;DHT22;9219;50.396;8.546;2023-05-13T07:28:06;16.60;99.90
18189;DHT22;9219;50.396;8.546;2023-05-13T07:30:33;16.60;99.90
18189;DHT22;9219;50.396;8.546;2023-05-13T07:33:01;16.60;99.90
18189;DHT22;9219;50.396;8.546;2023-05-13T07:35:30;16.90;99.90
18189;DHT22;9219;50.396;8.546;2023-05-13T07:43:03;17.20;99.90
18189;DHT22;9219;50.396;8.546;2023-05-13T07:45:31;17.70;99.90
18189;DHT22;9219;50.396;8.546;2023-05-13T07:47:58;17.60;99.90
18189;DHT22;9219;50.396;8.546;2023-05-13T07:50:27;17.60;99.90
18189;DHT22;9219;50.396;8.546;2023-05-13T07:52:55;17.70;99.90
18189;DHT22;9219;50.396;8.546;2023-05-13T07:55:23;17.90;99.90
18189;DHT22;9219;50.396;8.546;2023-05-13T07:57:51;18.10;99.90
18189;DHT22;9219;50.396;8.546;2023-05-13T08:00:19;18.30;99.90
18189;DHT22;9219;50.396;8.546;2023-05-13T08:03:14;18.50;99.90
18189;DHT22;9219;50.396;8.546;2023-05-13T08:05:43;18.70;99.90
18189;DHT22;9219;50.396;8.546;2023-05-13T08:08:14;18.80;99.90
18189;DHT22;9219;50.396;8.546;2023-05-13T08:10:42;18.90;99.90
18189;DHT22;9219;50.396;8.546;2023-05-13T08:13:10;19.10;99.90
18189;DHT22;9219;50.396;8.546;2023-05-13T08:15:38;19.40;99.90
18189;DHT22;9219;50.396;8.546;2023-05-13T08:18:05;19.50;99.90
18189;DHT22;9219;50.396;8.546;2023-05-13T08:20:50;19.60;99.90
18189;DHT22;9219;50.396;8.546;2023-05-13T08:28:19;19.90;99.90
18189;DHT22;9219;50.396;8.546;2023-05-13T08:30:47;20.30;99.90
18189;DHT22;9219;50.396;8.546;2023-05-13T08:33:19;20.50;99.90
18189;DHT22;9219;50.396;8.546;2023-05-13T08:35:51;20.70;99.90
18189;DHT22;9219;50.396;8.546;2023-05-13T08:38:19;20.90;99.90
18189;DHT22;9219;50.396;8.546;2023-05-13T08:40:48;20.90;99.90
18189;DHT22;9219;50.396;8.546;2023-05-13T08:43:15;20.90;99.90
18189;DHT22;9219;50.396;8.546;2023-05-13T08:48:26;21.00;99.90
18189;DHT22;9219;50.396;8.546;2023-05-13T08:50:54;21.30;99.90
18189;DHT22;9219;50.396;8.546;2023-05-13T08:53:24;21.10;99.90
18189;DHT22;9219;50.396;8.546;2023-05-13T08:55:52;21.10;99.90
18189;DHT22;9219;50.396;8.546;2023-05-13T08:58:20;21.10;99.90
18189;DHT22;9219;50.396;8.546;2023-05-13T09:00:48;20.90;99.90
18189;DHT22;9219;50.396;8.546;2023-05-13T09:03:15;21.10;99.90
18189;DHT22;9219;50.396;8.546;2023-05-13T09:05:46;21.60;99.90
18189;DHT22;9219;50.396;8.546;2023-05-13T09:13:18;21.60;99.90
18189;DHT22;9219;50.396;8.546;2023-05-13T09:15:45;21.50;99.90
18189;DHT22;9219;50.396;8.546;2023-05-13T09:18:14;21.90;99.90
18189;DHT22;9219;50.396;8.546;2023-05-13T09:20:45;22.00;99.90
18189;DHT22;9219;50.396;8.546;2023-05-13T09:23:12;22.40;99.90
18189;DHT22;9219;50.396;8.546;2023-05-13T09:25:42;22.50;99.90
18189;DHT22;9219;50.396;8.546;2023-05-13T09:28:14;22.20;99.90
18189;DHT22;9219;50.396;8.546;2023-05-13T09:30:44;22.10;99.90
18189;DHT22;9219;50.396;8.546;2023-05-13T09:38:26;21.50;99.90
18189;DHT22;9219;50.396;8.546;2023-05-13T09:40:57;22.60;99.90
18189;DHT22;9219;50.396;8.546;2023-05-13T09:43:30;22.80;99.90
18189;DHT22;9219;50.396;8.546;2023-05-13T09:46:01;23.30;99.90
18189;DHT22;9219;50.396;8.546;2023-05-13T09:48:30;23.70;99.90
18189;DHT22;9219;50.396;8.546;2023-05-13T09:50:58;23.50;99.90
18189;DHT22;9219;50.396;8.546;2023-05-13T09:53:28;23.50;99.90
18189;DHT22;9219;50.396;8.546;2023-05-13T09:55:56;23.90;99.90
18189;DHT22;9219;50.396;8.546;2023-05-13T09:58:55;24.20;99.90
18189;DHT22;9219;50.396;8.546;2023-05-13T10:01:26;24.00;99.90
18189;DHT22;9219;50.396;8.546;2023-05-13T10:03:58;24.30;99.90
18189;DHT22;9219;50.396;8.546;2023-05-13T10:06:29;24.40;99.90
18189;DHT22;9219;50.396;8.546;2023-05-13T10:08:58;24.40;99.90
18189;DHT22;9219;50.396;8.546;2023-05-13T10:11:29;24.50;99.90
18189;DHT22;9219;50.396;8.546;2023-05-13T10:14:02;23.80;99.90
18189;DHT22;9219;50.396;8.546;2023-05-13T10:19:19;24.30;99.90
18189;DHT22;9219;50.396;8.546;2023-05-13T10:21:51;24.80;99.90
18189;DHT22;9219;50.396;8.546;2023-05-13T10:24:23;24.70;99.90
18189;DHT22;9219;50.396;8.546;2023-05-13T10:26:53;24.70;99.90
18189;DHT22;9219;50.396;8.546;2023-05-13T10:29:25;24.70;99.90
18189;DHT22;9219;50.396;8.546;2023-05-13T10:31:58;24.90;99.90
18189;DHT22;9219;50.396;8.546;2023-05-13T10:34:30;25.20;99.90
18189;DHT22;9219;50.396;8.546;2023-05-13T10:37:16;25.30;99.90
18189;DHT22;9219;50.396;8.546;2023-05-13T10:45:18;25.50;99.90
18189;DHT22;9219;50.396;8.546;2023-05-13T10:47:49;25.50;99.90
18189;DHT22;9219;50.396;8.546;2023-05-13T10:50:22;25.70;99.90
18189;DHT22;9219;50.396;8.546;2023-05-13T10:52:54;25.80;99.90
18189;DHT22;9219;50.396;8.546;2023-05-13T10:55:26;25.90;99.90
18189;DHT22;9219;50.396;8.546;2023-05-13T10:58:11;26.00;99.90
18189;DHT22;9219;50.396;8.546;2023-05-13T11:00:43;25.90;99.90
18189;DHT22;9219;50.396;8.546;2023-05-13T11:08:39;26.10;99.90
18189;DHT22;9219;50.396;8.546;2023-05-13T11:11:25;26.20;99.90
18189;DHT22;9219;50.396;8.546;2023-05-13T11:13:56;26.40;99.90
18189;DHT22;9219;50.396;8.546;2023-05-13T11:16:29;26.70;99.90
18189;DHT22;9219;50.396;8.546;2023-05-13T11:18:58;26.80;99.90
18189;DHT22;9219;50.396;8.546;2023-05-13T11:21:33;26.60;99.90
18189;DHT22;9219;50.396;8.546;2023-05-13T11:24:03;25.70;99.90
18189;DHT22;9219;50.396;8.546;2023-05-13T11:31:51;22.60;99.90
18189;DHT22;9219;50.396;8.546;2023-05-13T11:34:21;20.40;99.90
18189;DHT22;9219;50.396;8.546;2023-05-13T11:36:51;20.00;99.90
18189;DHT22;9219;50.396;8.546;2023-05-13T11:39:23;20.40;99.90
18189;DHT22;9219;50.396;8.546;2023-05-13T11:41:55;20.70;99.90
18189;DHT22;9219;50.396;8.546;2023-05-13T11:44:28;20.60;99.90
18189;DHT22;9219;50.396;8.546;2023-05-13T11:46:59;20.70;99.90
18189;DHT22;9219;50.396;8.546;2023-05-13T11:52:11;20.80;99.90
18189;DHT22;9219;50.396;8.546;2023-05-13T11:54:43;21.00;99.90
18189;DHT22;9219;50.396;8.546;2023-05-13T11:57:18;20.90;99.90
18189;DHT22;9219;50.396;8.546;2023-05-13T11:59:55;21.50;99.90
18189;DHT22;9219;50.396;8.546;2023-05-13T12:02:26;21.40;99.90
18189;DHT22;9219;50.396;8.546;2023-05-13T12:04:58;21.70;99.90
18189;DHT22;9219;50.396;8.546;2023-05-13T12:07:30;22.20;99.90
18189;DHT22;9219;50.396;8.546;2023-05-13T12:12:42;23.40;99.90
18189;DHT22;9219;50.396;8.546;2023-05-13T12:15:13;23.60;99.90
18189;DHT22;9219;50.396;8.546;2023-05-13T12:17:43;24.10;99.90
18189;DHT22;9219;50.396;8.546;2023-05-13T12:20:16;24.40;99.90
18189;DHT22;9219;50.396;8.546;2023-05-13T12:22:52;24.60;99.90
18189;DHT22;9219;50.396;8.546;2023-05-13T12:25:38;24.70;99.90
18189;DHT22;9219;50.396;8.546;2023-05-13T12:28:13;24.50;99.90
18189;DHT22;9219;50.396;8.546;2023-05-13T12:36:16;25.00;99.90
18189;DHT22;9219;50.396;8.546;2023-05-13T12:38:54;25.00;99.90
18189;DHT22;9219;50.396;8.546;2023-05-13T12:41:27;24.20;99.90
18189;DHT22;9219;50.396;8.546;2023-05-13T12:43:57;23.30;99.90
18189;DHT22;9219;50.396;8.546;2023-05-13T12:46:26;22.50;99.90
18189;DHT22;9219;50.396;8.546;2023-05-13T12:48:57;21.90;99.90
18189;DHT22;9219;50.396;8.546;2023-05-13T12:51:27;21.20;99.90
18189;DHT22;9219;50.396;8.546;2023-05-13T12:59:01;20.40;99.90
18189;DHT22;9219;50.396;8.546;2023-05-13T13:01:30;20.00;99.90
18189;DHT22;9219;50.396;8.546;2023-05-13T13:03:59;20.10;99.90
18189;DHT22;9219;50.396;8.546;2023-05-13T13:06:29;20.10;99.90
18189;DHT22;9219;50.396;8.546;2023-05-13T13:08:58;20.10;99.90
18189;DHT22;9219;50.396;8.546;2023-05-13T13:11:26;20.20;99.90
18189;DHT22;9219;50.396;8.546;2023-05-13T13:13:54;20.30;99.90
18189;DHT22;9219;50.396;8.546;2023-05-13T13:16:34;20.40;99.90
18189;DHT22;9219;50.396;8.546;2023-05-13T13:24:08;20.70;99.90
18189;DHT22;9219;50.396;8.546;2023-05-13T13:26:39;20.70;99.90
18189;DHT22;9219;50.396;8.546;2023-05-13T13:29:10;20.60;99.90
18189;DHT22;9219;50.396;8.546;2023-05-13T13:31:45;20.70;99.90
18189;DHT22;9219;50.396;8.546;2023-05-13T13:34:19;20.70;99.90
18189;DHT22;9219;50.396;8.546;2023-05-13T13:36:49;20.80;99.90
18189;DHT22;9219;50.396;8.546;2023-05-13T13:39:24;21.00;99.90
18189;DHT22;9219;50.396;8.546;2023-05-13T13:47:03;20.80;99.90
18189;DHT22;9219;50.396;8.546;2023-05-13T13:49:31;20.90;99.90
18189;DHT22;9219;50.396;8.546;2023-05-13T13:52:02;20.80;99.90
18189;DHT22;9219;50.396;8.546;2023-05-13T13:54:35;20.80;99.90
18189;DHT22;9219;50.396;8.546;2023-05-13T13:57:06;21.00;99.90
18189;DHT22;9219;50.396;8.546;2023-05-13T13:59:34;21.30;99.90
18189;DHT22;9219;50.396;8.546;2023-05-13T14:02:04;21.30;99.90
18189;DHT22;9219;50.396;8.546;2023-05-13T14:04:33;21.30;99.90
18189;DHT22;9219;50.396;8.546;2023-05-13T14:12:15;21.50;99.90
18189;DHT22;9219;50.396;8.546;2023-05-13T14:14:45;21.60;99.90
18189;DHT22;9219;50.396;8.546;2023-05-13T14:17:19;21.70;99.90
18189;DHT22;9219;50.396;8.546;2023-05-13T14:19:51;21.50;99.90
18189;DHT22;9219;50.396;8.546;2023-05-13T14:22:23;21.40;99.90
18189;DHT22;9219;50.396;8.546;2023-05-13T14:24:53;21.50;99.90
18189;DHT22;9219;50.396;8.546;2023-05-13T14:27:23;21.40;99.90
18189;DHT22;9219;50.396;8.546;2023-05-13T14:35:01;21.50;99.90
18189;DHT22;9219;50.396;8.546;2023-05-13T14:37:32;21.40;99.90
18189;DHT22;9219;50.396;8.546;2023-05-13T14:40:01;21.50;99.90
18189;DHT22;9219;50.396;8.546;2023-05-13T14:42:35;21.40;99.90
18189;DHT22;9219;50.396;8.546;2023-05-13T14:45:06;21.50;99.90
18189;DHT22;9219;50.396;8.546;2023-05-13T14:47:43;21.50;99.90
18189;DHT22;9219;50.396;8.546;2023-05-13T14:50:19;21.70;99.90
18189;DHT22;9219;50.396;8.546;2023-05-13T14:55:44;21.90;99.90
18189;DHT22;9219;50.396;8.546;2023-05-13T14:58:15;21.70;99.90
18189;DHT22;9219;50.396;8.546;2023-05-13T15:00:43;21.70;99.90
18189;DHT22;9219;50.396;8.546;2023-05-13T15:03:14;21.70;99.90
18189;DHT22;9219;50.396;8.546;2023-05-13T15:05:45;22.00;99.90
18189;DHT22;9219;50.396;8.546;2023-05-13T15:08:14;21.80;99.90
18189;DHT22;9219;50.396;8.546;2023-05-13T15:10:48;21.50;99.90
18189;DHT22;9219;50.396;8.546;2023-05-13T15:18:26;21.40;99.90
18189;DHT22;9219;50.396;8.546;2023-05-13T15:21:00;21.80;99.90
18189;DHT22;9219;50.396;8.546;2023-05-13T15:23:46;21.80;99.90
18189;DHT22;9219;50.396;8.546;2023-05-13T15:26:20;21.60;99.90
18189;DHT22;9219;50.396;8.546;2023-05-13T15:28:51;21.50;99.90
18189;DHT22;9219;50.396;8.546;2023-05-13T15:31:21;21.50;99.90
18189;DHT22;9219;50.396;8.546;2023-05-13T15:33:56;21.30;99.90
18189;DHT22;9219;50.396;8.546;2023-05-13T15:43:21;21.20;99.90
18189;DHT22;9219;50.396;8.546;2023-05-13T15:45:49;21.10;99.90
18189;DHT22;9219;50.396;8.546;2023-05-13T15:48:20;21.30;99.90
18189;DHT22;9219;50.396;8.546;2023-05-13T15:50:48;21.30;99.90
18189;DHT22;9219;50.396;8.546;2023-05-13T15:53:16;21.20;99.90
18189;DHT22;9219;50.396;8.546;2023-05-13T15:55:45;21.10;99.90
18189;DHT22;9219;50.396;8.546;2023-05-13T15:58:15;21.00;99.90
18189;DHT22;9219;50.396;8.546;2023-05-13T16:05:50;21.30;99.90
18189;DHT22;9219;50.396;8.546;2023-05-13T16:08:21;21.00;99.90
18189;DHT22;9219;50.396;8.546;2023-05-13T16:10:53;20.70;99.90
18189;DHT22;9219;50.396;8.546;2023-05-13T16:13:27;20.70;99.90
18189;DHT22;9219;50.396;8.546;2023-05-13T16:15:57;21.00;99.90
18189;DHT22;9219;50.396;8.546;2023-05-13T16:18:25;21.00;99.90
18189;DHT22;9219;50.396;8.546;2023-05-13T16:20:55;20.90;99.90
18189;DHT22;9219;50.396;8.546;2023-05-13T16:26:19;21.00;99.90
18189;DHT22;9219;50.396;8.546;2023-05-13T16:28:49;21.20;99.90
18189;DHT22;9219;50.396;8.546;2023-05-13T16:31:18;21.20;99.90
18189;DHT22;9219;50.396;8.546;2023-05-13T16:33:49;21.20;99.90
18189;DHT22;9219;50.396;8.546;2023-05-13T16:36:20;21.30;99.90
18189;DHT22;9219;50.396;8.546;2023-05-13T16:38:49;21.00;99.90
18189;DHT22;9219;50.396;8.546;2023-05-13T16:41:28;20.80;99.90
18189;DHT22;9219;50.396;8.546;2023-05-13T16:49:02;20.70;99.90
18189;DHT22;9219;50.396;8.546;2023-05-13T16:51:31;20.80;99.90
18189;DHT22;9219;50.396;8.546;2023-05-13T16:53:59;20.80;99.90
18189;DHT22;9219;50.396;8.546;2023-05-13T16:56:27;20.70;99.90
18189;DHT22;9219;50.396;8.546;2023-05-13T16:58:58;20.70;99.90
18189;DHT22;9219;50.396;8.546;2023-05-13T17:01:26;20.70;99.90
18189;DHT22;9219;50.396;8.546;2023-05-13T17:03:57;20.70;99.90
18189;DHT22;9219;50.396;8.546;2023-05-13T17:09:11;20.60;99.90
18189;DHT22;9219;50.396;8.546;2023-05-13T17:11:39;20.60;99.90
18189;DHT22;9219;50.396;8.546;2023-05-13T17:14:10;20.60;99.90
18189;DHT22;9219;50.396;8.546;2023-05-13T17:16:39;20.50;99.90
18189;DHT22;9219;50.396;8.546;2023-05-13T17:19:10;20.40;99.90
18189;DHT22;9219;50.396;8.546;2023-05-13T17:21:43;20.80;99.90
18189;DHT22;9219;50.396;8.546;2023-05-13T17:24:13;20.20;99.90
18189;DHT22;9219;50.396;8.546;2023-05-13T17:32:19;18.00;99.90
18189;DHT22;9219;50.396;8.546;2023-05-13T17:34:52;17.60;99.90
18189;DHT22;9219;50.396;8.546;2023-05-13T17:37:22;17.70;99.90
18189;DHT22;9219;50.396;8.546;2023-05-13T17:39:52;17.40;99.90
18189;DHT22;9219;50.396;8.546;2023-05-13T17:42:21;17.40;99.90
18189;DHT22;9219;50.396;8.546;2023-05-13T17:44:54;17.30;99.90
18189;DHT22;9219;50.396;8.546;2023-05-13T17:47:24;17.00;99.90
18189;DHT22;9219;50.396;8.546;2023-05-13T17:54:59;15.70;99.90
18189;DHT22;9219;50.396;8.546;2023-05-13T17:57:29;14.30;99.90
18189;DHT22;9219;50.396;8.546;2023-05-13T18:00:07;13.90;99.90
18189;DHT22;9219;50.396;8.546;2023-05-13T18:02:51;13.80;99.90
18189;DHT22;9219;50.396;8.546;2023-05-13T18:05:23;14.20;99.90
18189;DHT22;9219;50.396;8.546;2023-05-13T18:07:56;14.10;99.90
18189;DHT22;9219;50.396;8.546;2023-05-13T18:10:30;13.60;99.90
18189;DHT22;9219;50.396;8.546;2023-05-13T18:20:34;14.10;99.90
18189;DHT22;9219;50.396;8.546;2023-05-13T18:23:05;15.10;99.90
18189;DHT22;9219;50.396;8.546;2023-05-13T18:25:33;15.40;99.90
18189;DHT22;9219;50.396;8.546;2023-05-13T18:28:21;15.50;99.90
18189;DHT22;9219;50.396;8.546;2023-05-13T18:30:57;15.60;99.90
18189;DHT22;9219;50.396;8.546;2023-05-13T18:33:25;15.00;99.90
18189;DHT22;9219;50.396;8.546;2023-05-13T18:35:57;14.70;99.90
18189;DHT22;9219;50.396;8.546;2023-05-13T18:41:06;15.00;99.90
18189;DHT22;9219;50.396;8.546;2023-05-13T18:43:34;14.80;99.90
18189;DHT22;9219;50.396;8.546;2023-05-13T18:46:04;15.20;99.90
18189;DHT22;9219;50.396;8.546;2023-05-13T18:48:33;15.60;99.90
18189;DHT22;9219;50.396;8.546;2023-05-13T18:51:01;15.20;99.90
18189;DHT22;9219;50.396;8.546;2023-05-13T18:53:31;15.20;99.90
18189;DHT22;9219;50.396;8.546;2023-05-13T18:56:03;14.80;99.90
18189;DHT22;9219;50.396;8.546;2023-05-13T19:03:40;14.50;99.90
18189;DHT22;9219;50.396;8.546;2023-05-13T19:06:11;14.40;99.90
18189;DHT22;9219;50.396;8.546;2023-05-13T19:08:40;14.50;99.90
18189;DHT22;9219;50.396;8.546;2023-05-13T19:11:09;14.60;99.90
18189;DHT22;9219;50.396;8.546;2023-05-13T19:13:38;14.80;99.90
18189;DHT22;9219;50.396;8.546;2023-05-13T19:16:20;14.90;99.90
18189;DHT22;9219;50.396;8.546;2023-05-13T19:18:52;15.40;99.90
18189;DHT22;9219;50.396;8.546;2023-05-13T19:21:21;15.70;99.90
18189;DHT22;9219;50.396;8.546;2023-05-13T19:28:58;16.10;99.90
18189;DHT22;9219;50.396;8.546;2023-05-13T19:31:29;16.20;99.90
18189;DHT22;9219;50.396;8.546;2023-05-13T19:34:01;16.20;99.90
18189;DHT22;9219;50.396;8.546;2023-05-13T19:36:40;16.10;99.90
18189;DHT22;9219;50.396;8.546;2023-05-13T19:39:22;16.20;99.90
18189;DHT22;9219;50.396;8.546;2023-05-13T19:41:58;15.80;99.90
18189;DHT22;9219;50.396;8.546;2023-05-13T19:44:37;15.80;99.90